Time;durP1;ratioP1;P1;durP2;ratioP2;P2;SDS_P1;SDS_P2;PMS_P1;PMS_P2;Temp;Humidity;BMP_temperature;BMP_pressure;BME280_temperature;BME280_humidity;BME280_pressure;Samples;Min_cycle;Max_cycle;Signal;HPM_P1;HPM_P2
2020/12/28 01:05:43;;;;;;;30.90;16.47;;;;;;;;;;12781229;23;20215;-58
2020/12/28 01:10:45;;;;;;;35.93;16.40;;;;;;;;;;12823900;23;21024;-59
2020/12/28 01:15:46;;;;;;;34.93;16.83;;;;;;;;;;12821549;23;20543;-58
2020/12/28 01:20:49;;;;;;;36.67;16.87;;;;;;;;;;12822600;23;20171;-62
2020/12/28 01:25:51;;;;;;;30.83;16.13;;;;;;;;;;12811498;23;20255;-60
2020/12/28 01:30:53;;;;;;;31.57;16.33;;;;;;;;;;12823802;23;20251;-60
2020/12/28 01:35:55;;;;;;;35.13;16.93;;;;;;;;;;12824572;23;20680;-60
2020/12/28 01:40:57;;;;;;;35.10;17.60;;;;;;;;;;12822383;23;20180;-60
2020/12/28 01:46:00;;;;;;;35.57;17.63;;;;;;;;;;12824404;23;20187;-60
2020/12/28 01:51:03;;;;;;;41.77;17.90;;;;;;;;;;12820689;23;20182;-60
2020/12/28 01:56:05;;;;;;;41.43;18.37;;;;;;;;;;12823181;23;20219;-60
2020/12/28 02:01:07;;;;;;;40.03;17.43;;;;;;;;;;12819613;23;20203;-61
2020/12/28 02:06:10;;;;;;;35.47;17.47;;;;;;;;;;12882722;23;20662;-60
2020/12/28 02:11:12;;;;;;;36.23;18.37;;;;;;;;;;12883442;23;20510;-62
2020/12/28 02:16:14;;;;;;;38.23;18.33;;;;;;;;;;12885186;23;20199;-60
2020/12/28 02:21:17;;;;;;;45.27;19.33;;;;;;;;;;12882711;23;20175;-61
2020/12/28 02:26:19;;;;;;;39.67;18.63;;;;;;;;;;12886032;23;20179;-60
2020/12/28 02:31:21;;;;;;;45.17;19.67;;;;;;;;;;12884584;23;20175;-60
2020/12/28 02:36:23;;;;;;;41.97;21.20;;;;;;;;;;12884721;23;20207;-60
2020/12/28 02:41:25;;;;;;;37.77;19.70;;;;;;;;;;12884280;23;20178;-61
2020/12/28 02:46:27;;;;;;;46.47;22.97;;;;;;;;;;12885913;23;20499;-60
2020/12/28 02:51:29;;;;;;;48.20;22.57;;;;;;;;;;12887294;23;20240;-61
2020/12/28 02:56:31;;;;;;;50.43;23.90;;;;;;;;;;12889913;23;20206;-60
2020/12/28 03:01:37;;;;;;;45.90;23.20;;;;;;;;;;12887664;23;20199;-60
2020/12/28 03:06:38;;;;;;;55.73;24.53;;;;;;;;;;12887041;23;20167;-61
2020/12/28 03:11:41;;;;;;;53.47;26.10;;;;;;;;;;12886172;23;20659;-60
2020/12/28 03:16:42;;;;;;;58.47;25.67;;;;;;;;;;12889354;23;20306;-60
2020/12/28 03:21:44;;;;;;;60.60;27.27;;;;;;;;;;12884842;23;20179;-60
2020/12/28 03:26:47;;;;;;;64.63;26.83;;;;;;;;;;12890611;23;20506;-61
2020/12/28 03:31:48;;;;;;;59.60;26.63;;;;;;;;;;12886698;23;20219;-61
2020/12/28 03:36:50;;;;;;;62.90;27.60;;;;;;;;;;12888086;23;20281;-61
2020/12/28 03:41:53;;;;;;;61.93;26.50;;;;;;;;;;12887056;23;20503;-61
2020/12/28 03:46:57;;;;;;;57.00;25.40;;;;;;;;;;12888910;23;20198;-60
2020/12/28 03:51:59;;;;;;;67.87;26.87;;;;;;;;;;12885231;23;20183;-62
2020/12/28 03:57:02;;;;;;;60.73;25.07;;;;;;;;;;12888232;23;20203;-60
2020/12/28 04:02:04;;;;;;;60.00;24.93;;;;;;;;;;12884955;23;20211;-60
2020/12/28 04:07:05;;;;;;;59.47;24.83;;;;;;;;;;12885651;23;20505;-60
2020/12/28 04:12:08;;;;;;;48.90;22.83;;;;;;;;;;12887895;23;20813;-60
2020/12/28 04:17:10;;;;;;;47.17;22.07;;;;;;;;;;12886038;23;20211;-60
2020/12/28 04:22:11;;;;;;;57.53;23.27;;;;;;;;;;12881702;23;20637;-60
2020/12/28 04:27:14;;;;;;;59.23;23.30;;;;;;;;;;12886232;23;20720;-60
2020/12/28 04:32:15;;;;;;;56.47;22.77;;;;;;;;;;12886153;23;20182;-60
2020/12/28 04:37:17;;;;;;;56.50;22.00;;;;;;;;;;12884733;23;20206;-60
2020/12/28 04:42:24;;;;;;;46.67;21.07;;;;;;;;;;12887097;23;20555;-60
2020/12/28 04:47:27;;;;;;;46.27;21.03;;;;;;;;;;12885605;23;20238;-60
2020/12/28 04:52:29;;;;;;;52.07;20.50;;;;;;;;;;12885361;23;20286;-60
2020/12/28 04:57:32;;;;;;;51.10;20.90;;;;;;;;;;12885176;23;20210;-60
2020/12/28 05:02:33;;;;;;;46.20;20.37;;;;;;;;;;12886922;23;20218;-60
2020/12/28 05:07:35;;;;;;;45.80;20.10;;;;;;;;;;12883213;23;20182;-60
2020/12/28 05:12:37;;;;;;;50.23;20.83;;;;;;;;;;12887795;23;20174;-60
2020/12/28 05:17:40;;;;;;;44.23;20.37;;;;;;;;;;12885065;23;20723;-60
2020/12/28 05:22:45;;;;;;;40.03;18.13;;;;;;;;;;12884569;23;20658;-61
2020/12/28 05:27:48;;;;;;;42.93;16.50;;;;;;;;;;12885039;23;20915;-60
2020/12/28 05:32:51;;;;;;;34.40;17.10;;;;;;;;;;12885989;23;20182;-61
2020/12/28 05:37:53;;;;;;;38.97;17.37;;;;;;;;;;12880649;23;20731;-60
2020/12/28 05:42:56;;;;;;;42.00;17.30;;;;;;;;;;12886550;23;20175;-61
2020/12/28 05:47:59;;;;;;;36.67;18.23;;;;;;;;;;12883900;23;20563;-61
2020/12/28 05:53:01;;;;;;;40.33;18.03;;;;;;;;;;12885571;23;20175;-61
2020/12/28 05:58:04;;;;;;;41.03;18.47;;;;;;;;;;12884765;23;20199;-61
2020/12/28 06:03:09;;;;;;;42.80;19.80;;;;;;;;;;12885054;23;20214;-61
2020/12/28 06:08:11;;;;;;;44.77;18.83;;;;;;;;;;12880283;22;20617;-60
2020/12/28 06:13:20;;;;;;;40.03;17.57;;;;;;;;;;12886578;23;20171;-60
2020/12/28 06:18:22;;;;;;;37.83;17.27;;;;;;;;;;12881928;23;20687;-60
2020/12/28 06:23:26;;;;;;;40.47;17.33;;;;;;;;;;12888997;23;20171;-60
2020/12/28 06:28:29;;;;;;;31.43;15.87;;;;;;;;;;12889115;23;20175;-60
2020/12/28 06:33:31;;;;;;;32.77;15.80;;;;;;;;;;12889505;23;20182;-60
2020/12/28 06:38:32;;;;;;;32.57;15.03;;;;;;;;;;12886264;23;20211;-62
2020/12/28 06:43:38;;;;;;;27.63;13.83;;;;;;;;;;12889037;23;20179;-60
2020/12/28 06:48:40;;;;;;;26.37;13.60;;;;;;;;;;12887610;23;20465;-60
2020/12/28 06:53:42;;;;;;;24.17;12.17;;;;;;;;;;12887168;23;20397;-61
2020/12/28 06:58:44;;;;;;;24.97;12.77;;;;;;;;;;12889256;23;20703;-61
2020/12/28 07:03:49;;;;;;;22.03;11.73;;;;;;;;;;12890280;23;20217;-61
2020/12/28 07:08:51;;;;;;;25.27;12.17;;;;;;;;;;12890186;23;20195;-60
2020/12/28 07:14:01;;;;;;;21.53;12.03;;;;;;;;;;12886868;23;20243;-60
2020/12/28 07:19:03;;;;;;;20.97;10.40;;;;;;;;;;12888408;23;20198;-60
2020/12/28 07:24:08;;;;;;;20.70;10.30;;;;;;;;;;12885429;23;20179;-60
2020/12/28 07:29:11;;;;;;;19.20;10.23;;;;;;;;;;12887807;23;20668;-60
2020/12/28 07:34:13;;;;;;;22.07;9.93;;;;;;;;;;12886038;23;20556;-60
2020/12/28 07:39:15;;;;;;;27.30;9.50;;;;;;;;;;12887878;23;20199;-60
2020/12/28 07:44:17;;;;;;;16.97;9.80;;;;;;;;;;12885541;23;20860;-61
2020/12/28 07:49:20;;;;;;;18.70;9.57;;;;;;;;;;12887515;23;20186;-60
2020/12/28 07:54:23;;;;;;;20.60;9.70;;;;;;;;;;12885015;23;20182;-61
2020/12/28 07:59:48;;;;;;;22.83;8.97;;;;;;;;;;12887220;23;20234;-60
2020/12/28 08:04:51;;;;;;;21.70;8.97;;;;;;;;;;12883339;23;20211;-61
2020/12/28 08:09:53;;;;;;;18.93;9.73;;;;;;;;;;12887177;23;20202;-61
2020/12/28 08:14:56;;;;;;;17.23;8.90;;;;;;;;;;12886824;23;20175;-60
2020/12/28 08:20:08;;;;;;;24.93;10.03;;;;;;;;;;12880617;23;20207;-62
2020/12/28 08:25:10;;;;;;;23.90;9.00;;;;;;;;;;12878115;23;20199;-61
2020/12/28 08:30:13;;;;;;;22.20;8.07;;;;;;;;;;12880704;23;20179;-62
2020/12/28 08:35:15;;;;;;;19.43;8.10;;;;;;;;;;12877918;23;20202;-61
2020/12/28 08:40:17;;;;;;;18.60;7.63;;;;;;;;;;12880662;23;20210;-61
2020/12/28 08:45:20;;;;;;;20.53;8.00;;;;;;;;;;12876053;23;20660;-61
2020/12/28 08:50:22;;;;;;;16.67;7.83;;;;;;;;;;12879747;23;20186;-58
2020/12/28 08:55:24;;;;;;;20.40;7.50;;;;;;;;;;12877558;23;20237;-60
2020/12/28 09:00:28;;;;;;;16.03;7.70;;;;;;;;;;12878943;23;20803;-61
2020/12/28 09:05:30;;;;;;;15.47;7.53;;;;;;;;;;12874786;23;20215;-60
2020/12/28 09:10:32;;;;;;;20.53;7.13;;;;;;;;;;12879312;23;20195;-62
2020/12/28 09:15:34;;;;;;;17.20;7.30;;;;;;;;;;12878633;23;20179;-60
2020/12/28 09:20:36;;;;;;;16.67;6.90;;;;;;;;;;12874370;23;20211;-61
2020/12/28 09:25:37;;;;;;;19.40;7.63;;;;;;;;;;12879884;23;20190;-60
2020/12/28 09:30:40;;;;;;;17.43;7.20;;;;;;;;;;12877613;23;20183;-66
2020/12/28 09:35:41;;;;;;;15.23;6.77;;;;;;;;;;12878952;23;20223;-61
2020/12/28 09:40:43;;;;;;;14.87;7.20;;;;;;;;;;12879407;23;20558;-60
2020/12/28 09:45:48;;;;;;;21.00;6.03;;;;;;;;;;12880920;23;20262;-61
2020/12/28 09:50:51;;;;;;;13.67;6.00;;;;;;;;;;12876654;23;20509;-61
2020/12/28 09:55:53;;;;;;;15.90;6.23;;;;;;;;;;12880178;23;20651;-60
2020/12/28 10:00:55;;;;;;;15.03;5.97;;;;;;;;;;12881035;23;20221;-61
2020/12/28 10:05:57;;;;;;;12.43;5.10;;;;;;;;;;12885335;23;20759;-62
2020/12/28 10:10:59;;;;;;;17.10;5.57;;;;;;;;;;12881918;23;20175;-62
2020/12/28 10:16:01;;;;;;;8.90;4.73;;;;;;;;;;12881382;23;20190;-63
2020/12/28 10:21:03;;;;;;;11.67;4.57;;;;;;;;;;12876267;23;20564;-61
2020/12/28 10:26:05;;;;;;;9.70;5.00;;;;;;;;;;12879971;23;20175;-61
2020/12/28 10:31:09;;;;;;;10.00;4.37;;;;;;;;;;12880076;23;20179;-60
2020/12/28 10:36:13;;;;;;;19.07;4.40;;;;;;;;;;12882300;23;20179;-60
2020/12/28 10:41:15;;;;;;;13.93;4.53;;;;;;;;;;12877083;23;20299;-60
2020/12/28 10:46:17;;;;;;;11.53;3.80;;;;;;;;;;12884190;23;20221;-61
2020/12/28 10:51:19;;;;;;;8.97;3.77;;;;;;;;;;12879902;23;20179;-61
2020/12/28 10:56:23;;;;;;;8.33;3.83;;;;;;;;;;12879099;23;20482;-61
2020/12/28 11:01:27;;;;;;;11.30;3.80;;;;;;;;;;12881617;23;20285;-61
2020/12/28 11:06:29;;;;;;;13.77;3.90;;;;;;;;;;12876998;23;20775;-62
2020/12/28 11:11:30;;;;;;;12.27;3.40;;;;;;;;;;12883255;23;20278;-60
2020/12/28 11:16:33;;;;;;;9.97;3.57;;;;;;;;;;12880299;23;20207;-60
2020/12/28 11:21:35;;;;;;;7.23;3.70;;;;;;;;;;12879911;23;20171;-59
2020/12/28 11:26:37;;;;;;;9.23;3.20;;;;;;;;;;12879196;23;20179;-63
2020/12/28 11:31:39;;;;;;;6.77;3.30;;;;;;;;;;12880710;23;20527;-60
2020/12/28 11:36:41;;;;;;;9.17;3.30;;;;;;;;;;12877021;23;20217;-61
2020/12/28 11:41:43;;;;;;;8.77;3.37;;;;;;;;;;12883132;23;20182;-63
2020/12/28 11:46:45;;;;;;;11.67;3.60;;;;;;;;;;12880254;23;20182;-62
2020/12/28 11:51:50;;;;;;;9.90;3.50;;;;;;;;;;12880398;23;20182;-60
2020/12/28 11:56:52;;;;;;;11.43;3.20;;;;;;;;;;12878317;23;20522;-61
2020/12/28 12:01:54;;;;;;;8.17;3.10;;;;;;;;;;12885902;23;20199;-61
2020/12/28 12:06:56;;;;;;;5.50;3.13;;;;;;;;;;12881089;23;20214;-61
2020/12/28 12:11:58;;;;;;;9.90;3.37;;;;;;;;;;12887041;23;20182;-61
2020/12/28 12:17:00;;;;;;;11.87;4.00;;;;;;;;;;12883675;23;20206;-61
2020/12/28 12:22:02;;;;;;;10.47;3.60;;;;;;;;;;12885607;23;20179;-61
2020/12/28 12:27:04;;;;;;;7.23;3.93;;;;;;;;;;12884220;23;20182;-61
2020/12/28 12:32:06;;;;;;;8.17;3.27;;;;;;;;;;12887361;23;20183;-61
2020/12/28 12:37:09;;;;;;;11.03;3.53;;;;;;;;;;12882875;23;20680;-61
2020/12/28 12:42:11;;;;;;;13.07;3.30;;;;;;;;;;12888115;23;20190;-61
2020/12/28 12:47:13;;;;;;;9.33;3.20;;;;;;;;;;12890673;23;20171;-60
2020/12/28 12:52:17;;;;;;;7.37;3.50;;;;;;;;;;12883818;23;20687;-61
2020/12/28 12:57:19;;;;;;;8.13;3.30;;;;;;;;;;12886224;23;20211;-61
2020/12/28 13:02:22;;;;;;;7.47;2.87;;;;;;;;;;12882743;23;20194;-61
2020/12/28 13:07:24;;;;;;;14.70;3.83;;;;;;;;;;12878748;23;20861;-67
2020/12/28 13:12:26;;;;;;;7.70;3.40;;;;;;;;;;12881808;23;21072;-65
2020/12/28 13:17:29;;;;;;;11.13;4.20;;;;;;;;;;12882463;23;20482;-61
2020/12/28 13:22:31;;;;;;;10.60;3.67;;;;;;;;;;12880289;23;20428;-60
2020/12/28 13:27:32;;;;;;;7.67;3.87;;;;;;;;;;12883907;23;20175;-64
2020/12/28 13:32:35;;;;;;;12.53;4.00;;;;;;;;;;12880513;23;20625;-61
2020/12/28 13:37:37;;;;;;;8.97;3.70;;;;;;;;;;12881492;23;20767;-60
2020/12/28 13:42:39;;;;;;;10.03;3.70;;;;;;;;;;12877851;23;20179;-60
2020/12/28 13:47:41;;;;;;;9.83;3.60;;;;;;;;;;12877557;23;20186;-60
2020/12/28 13:52:43;;;;;;;9.07;3.70;;;;;;;;;;12874384;23;20242;-54
2020/12/28 13:57:45;;;;;;;8.10;3.60;;;;;;;;;;12877885;23;20207;-60
2020/12/28 14:02:47;;;;;;;11.33;3.80;;;;;;;;;;12876852;23;20191;-57
2020/12/28 14:07:49;;;;;;;11.53;3.20;;;;;;;;;;12876704;23;20209;-58
2020/12/28 14:12:50;;;;;;;7.67;3.33;;;;;;;;;;12877729;23;20727;-59
2020/12/28 14:17:53;;;;;;;8.57;4.33;;;;;;;;;;12865149;23;20199;-56
2020/12/28 14:22:55;;;;;;;7.23;3.87;;;;;;;;;;12874056;23;20206;-57
2020/12/28 14:27:56;;;;;;;7.73;3.33;;;;;;;;;;12881426;23;20183;-57
2020/12/28 14:32:59;;;;;;;7.97;3.70;;;;;;;;;;12876551;23;20183;-59
2020/12/28 14:38:00;;;;;;;10.23;3.37;;;;;;;;;;12879103;23;20233;-59
2020/12/28 14:43:02;;;;;;;7.17;3.30;;;;;;;;;;12879586;23;20187;-59
2020/12/28 14:48:05;;;;;;;6.57;3.30;;;;;;;;;;12883813;23;20175;-59
2020/12/28 14:53:08;;;;;;;7.57;3.40;;;;;;;;;;12878124;23;20202;-58
2020/12/28 14:58:11;;;;;;;8.23;3.50;;;;;;;;;;12882965;23;20763;-59
2020/12/28 15:03:13;;;;;;;5.17;3.50;;;;;;;;;;12879579;23;20245;-59
2020/12/28 15:08:15;;;;;;;7.40;3.60;;;;;;;;;;12903709;23;20174;-59
2020/12/28 15:13:17;;;;;;;8.83;3.57;;;;;;;;;;12883908;23;20179;-60
2020/12/28 15:18:19;;;;;;;9.43;4.37;;;;;;;;;;12884164;23;20210;-56
2020/12/28 15:23:21;;;;;;;5.50;3.57;;;;;;;;;;12886546;23;20250;-57
2020/12/28 15:28:23;;;;;;;6.57;3.63;;;;;;;;;;12881711;23;20764;-59
2020/12/28 15:33:26;;;;;;;10.17;4.17;;;;;;;;;;12881329;23;20182;-59
2020/12/28 15:38:27;;;;;;;9.97;4.20;;;;;;;;;;12879338;23;20207;-59
2020/12/28 15:43:29;;;;;;;10.20;4.30;;;;;;;;;;12883395;23;20375;-58
2020/12/28 15:48:32;;;;;;;6.43;3.67;;;;;;;;;;12878267;23;20187;-55
2020/12/28 15:53:34;;;;;;;8.60;3.73;;;;;;;;;;12882136;23;20186;-58
2020/12/28 15:58:35;;;;;;;6.70;3.90;;;;;;;;;;12880568;23;20580;-58
2020/12/28 16:03:38;;;;;;;11.03;4.80;;;;;;;;;;12879057;23;20206;-58
2020/12/28 16:08:40;;;;;;;9.07;4.20;;;;;;;;;;12899262;23;20174;-57
2020/12/28 16:13:41;;;;;;;12.77;4.17;;;;;;;;;;12883037;23;20175;-55
2020/12/28 16:18:44;;;;;;;8.20;4.60;;;;;;;;;;12879688;23;20202;-58
2020/12/28 16:23:46;;;;;;;8.93;4.97;;;;;;;;;;12880641;23;20175;-56
2020/12/28 16:28:48;;;;;;;12.17;5.20;;;;;;;;;;12879633;23;20183;-55
2020/12/28 16:33:51;;;;;;;8.80;5.00;;;;;;;;;;12867935;23;20186;-56
2020/12/28 16:38:52;;;;;;;14.97;5.60;;;;;;;;;;12861708;23;20206;-58
2020/12/28 16:43:54;;;;;;;11.90;6.00;;;;;;;;;;12876930;23;20746;-58
2020/12/28 16:48:56;;;;;;;11.90;5.23;;;;;;;;;;12873000;23;20927;-58
2020/12/28 16:53:58;;;;;;;14.77;5.20;;;;;;;;;;12877341;23;20202;-56
2020/12/28 16:59:00;;;;;;;13.30;6.27;;;;;;;;;;12876495;23;20435;-57
2020/12/28 17:04:02;;;;;;;11.38;5.65;;;;;;;;;;12874416;23;20775;-56
2020/12/28 17:09:06;;;;;;;17.85;9.07;;;;;;;;;;12874185;23;20427;-57
2020/12/28 17:14:08;;;;;;;21.07;8.70;;;;;;;;;;12879817;23;20182;-58
2020/12/28 17:19:11;;;;;;;14.00;7.03;;;;;;;;;;12875864;23;20431;-56
2020/12/28 17:24:13;;;;;;;13.33;6.40;;;;;;;;;;12898462;23;20427;-58
2020/12/28 17:29:15;;;;;;;14.63;6.67;;;;;;;;;;12875208;23;20431;-56
2020/12/28 17:34:18;;;;;;;12.73;6.03;;;;;;;;;;12876373;23;20435;-56
2020/12/28 17:39:20;;;;;;;11.00;6.00;;;;;;;;;;12875184;23;20431;-58
2020/12/28 17:44:22;;;;;;;13.68;5.90;;;;;;;;;;12876890;23;20731;-57
2020/12/28 17:49:24;;;;;;;11.88;6.10;;;;;;;;;;12874748;23;20881;-58
2020/12/28 17:54:26;;;;;;;13.03;5.73;;;;;;;;;;12876572;23;20171;-58
2020/12/28 17:59:28;;;;;;;10.77;5.83;;;;;;;;;;12883021;23;20274;-58
2020/12/28 18:04:30;;;;;;;11.93;6.83;;;;;;;;;;12873285;23;20215;-66
2020/12/28 18:09:33;;;;;;;14.93;6.30;;;;;;;;;;12876118;23;20660;-66
2020/12/28 18:14:53;;;;;;;21.53;6.73;;;;;;;;;;12877115;23;20167;-65
2020/12/28 18:19:56;;;;;;;15.10;7.10;;;;;;;;;;12882942;23;20258;-58
2020/12/28 18:24:58;;;;;;;15.50;7.90;;;;;;;;;;12899915;23;20622;-58
2020/12/28 18:29:59;;;;;;;20.50;10.20;;;;;;;;;;12877758;23;20432;-57
2020/12/28 18:35:16;;;;;;;26.10;8.57;;;;;;;;;;12879086;23;20167;-58
2020/12/28 18:40:22;;;;;;;21.50;8.50;;;;;;;;;;12881536;23;20207;-57
2020/12/28 18:45:23;;;;;;;24.90;9.53;;;;;;;;;;12879992;23;20179;-57
2020/12/28 18:50:26;;;;;;;22.53;9.27;;;;;;;;;;12883144;23;20641;-57
2020/12/28 18:55:28;;;;;;;17.40;9.43;;;;;;;;;;12880513;23;20176;-56
2020/12/28 19:00:29;;;;;;;24.13;9.63;;;;;;;;;;12878916;23;20206;-57
2020/12/28 19:05:32;;;;;;;22.10;11.60;;;;;;;;;;12875138;23;20225;-59
2020/12/28 19:10:33;;;;;;;20.50;10.33;;;;;;;;;;12879949;23;20183;-57
2020/12/28 19:15:36;;;;;;;27.07;11.93;;;;;;;;;;12882315;23;20197;-57
2020/12/28 19:20:38;;;;;;;25.67;12.13;;;;;;;;;;12885138;23;20232;-57
2020/12/28 19:25:51;;;;;;;21.13;9.87;;;;;;;;;;12883942;23;20508;-56
2020/12/28 19:30:53;;;;;;;21.63;11.07;;;;;;;;;;12886405;23;20370;-56
2020/12/28 19:35:55;;;;;;;25.57;11.17;;;;;;;;;;12884421;23;20179;-57
2020/12/28 19:40:57;;;;;;;24.70;11.37;;;;;;;;;;12885637;23;20214;-56
2020/12/28 19:45:58;;;;;;;30.37;12.73;;;;;;;;;;12883979;23;20174;-57
2020/12/28 19:51:03;;;;;;;27.20;12.60;;;;;;;;;;12905550;23;20250;-56
2020/12/28 19:56:05;;;;;;;23.20;11.40;;;;;;;;;;12883775;23;20181;-57
2020/12/28 20:01:06;;;;;;;24.87;11.13;;;;;;;;;;12886942;23;20203;-57
2020/12/28 20:06:09;;;;;;;25.80;11.60;;;;;;;;;;12881728;23;20680;-56
2020/12/28 20:11:11;;;;;;;27.87;11.57;;;;;;;;;;12887599;23;20202;-58
2020/12/28 20:16:13;;;;;;;27.37;12.33;;;;;;;;;;12884049;23;20203;-56
2020/12/28 20:21:19;;;;;;;25.97;12.13;;;;;;;;;;12884130;23;20206;-57
2020/12/28 20:26:21;;;;;;;23.50;11.20;;;;;;;;;;12904634;23;20179;-57
2020/12/28 20:31:23;;;;;;;24.30;12.10;;;;;;;;;;12885892;23;20175;-57
2020/12/28 20:36:26;;;;;;;24.47;12.60;;;;;;;;;;12881594;23;20175;-58
2020/12/28 20:41:28;;;;;;;28.87;13.73;;;;;;;;;;12886073;23;20283;-58
2020/12/28 20:46:30;;;;;;;30.00;13.70;;;;;;;;;;12882195;23;20527;-58
2020/12/28 20:51:36;;;;;;;27.70;13.50;;;;;;;;;;12885031;23;20628;-56
2020/12/28 20:56:38;;;;;;;28.57;14.20;;;;;;;;;;12887600;23;20251;-57
2020/12/28 21:01:39;;;;;;;28.03;14.23;;;;;;;;;;12885211;23;20207;-58
2020/12/28 21:06:42;;;;;;;27.60;14.43;;;;;;;;;;12885817;23;20222;-59
2020/12/28 21:11:44;;;;;;;30.53;14.33;;;;;;;;;;12887063;23;20182;-59
2020/12/28 21:16:45;;;;;;;28.10;14.30;;;;;;;;;;12885921;23;20211;-58
2020/12/28 21:21:50;;;;;;;36.30;15.00;;;;;;;;;;12884690;23;20203;-57
2020/12/28 21:26:52;;;;;;;32.17;15.37;;;;;;;;;;12887542;23;20175;-59
2020/12/28 21:31:54;;;;;;;29.80;14.43;;;;;;;;;;12882644;23;20171;-58
2020/12/28 21:36:57;;;;;;;32.37;14.73;;;;;;;;;;12883791;23;20175;-56
2020/12/28 21:41:59;;;;;;;26.37;15.53;;;;;;;;;;12881272;23;20637;-57
2020/12/28 21:47:00;;;;;;;26.87;14.43;;;;;;;;;;12886585;23;20190;-57
2020/12/28 21:52:03;;;;;;;31.80;15.37;;;;;;;;;;12887472;23;20556;-56
2020/12/28 21:57:05;;;;;;;25.57;13.93;;;;;;;;;;12892621;23;20534;-57
2020/12/28 22:02:19;;;;;;;22.93;13.87;;;;;;;;;;12892409;23;20607;-58
2020/12/28 22:07:22;;;;;;;27.30;13.97;;;;;;;;;;12888341;23;20203;-58
2020/12/28 22:12:23;;;;;;;22.23;12.67;;;;;;;;;;12891631;23;20647;-59
2020/12/28 22:17:25;;;;;;;21.20;12.80;;;;;;;;;;12889770;23;20186;-59
2020/12/28 22:22:28;;;;;;;17.77;11.13;;;;;;;;;;12890760;23;20175;-59
2020/12/28 22:27:30;;;;;;;22.60;13.07;;;;;;;;;;12890191;23;20208;-56
2020/12/28 22:32:32;;;;;;;24.77;13.77;;;;;;;;;;12892545;23;20179;-57
2020/12/28 22:37:35;;;;;;;23.53;13.03;;;;;;;;;;12888412;23;20201;-59
2020/12/28 22:42:36;;;;;;;27.00;17.88;;;;;;;;;;12891084;23;20427;-57
2020/12/28 22:47:38;;;;;;;23.53;13.80;;;;;;;;;;12890585;23;20181;-57
2020/12/28 22:52:41;;;;;;;23.30;13.80;;;;;;;;;;12890727;23;20181;-56
2020/12/28 22:57:42;;;;;;;25.93;14.60;;;;;;;;;;12889552;23;20179;-58
2020/12/28 23:02:44;;;;;;;23.77;13.67;;;;;;;;;;12887484;23;20202;-57
2020/12/28 23:07:47;;;;;;;22.20;13.57;;;;;;;;;;12882396;23;20266;-57
2020/12/28 23:12:49;;;;;;;25.27;14.33;;;;;;;;;;12885864;23;20179;-58
2020/12/28 23:17:50;;;;;;;26.23;15.23;;;;;;;;;;12886585;23;20217;-58
2020/12/28 23:22:54;;;;;;;24.37;14.63;;;;;;;;;;12884676;23;20183;-57
2020/12/28 23:27:56;;;;;;;22.43;13.50;;;;;;;;;;12887564;23;20175;-57
2020/12/28 23:32:57;;;;;;;22.90;13.43;;;;;;;;;;12886943;23;20182;-58
2020/12/28 23:38:07;;;;;;;23.17;13.63;;;;;;;;;;12906397;23;20249;-56
2020/12/28 23:43:09;;;;;;;24.27;13.90;;;;;;;;;;12886396;23;20186;-56
2020/12/28 23:48:10;;;;;;;24.30;14.20;;;;;;;;;;12886805;23;20179;-56
2020/12/28 23:53:13;;;;;;;21.07;13.10;;;;;;;;;;12886708;23;20183;-58
2020/12/28 23:58:18;;;;;;;24.20;14.23;;;;;;;;;;12887842;23;20229;-57
